Time;durP1;ratioP1;P1;durP2;ratioP2;P2;SDS_P1;SDS_P2;PMS_P1;PMS_P2;Temp;Humidity;BMP_temperature;BMP_pressure;BME280_temperature;BME280_humidity;BME280_pressure;Samples;Min_cycle;Max_cycle;Signal;HPM_P1;HPM_P2
2024/01/03 00:00:56;;;;;;;1.25;0.82;;;;;;;;;;4993746;28;20049;-66
2024/01/03 00:03:23;;;;;;;0.98;0.90;;;8.50;99.90;;;;;;4993958;28;20050;-67
2024/01/03 00:05:49;;;;;;;0.98;0.68;;;8.40;99.90;;;;;;4994059;28;20097;-66
2024/01/03 00:08:27;;;;;;;1.20;0.80;;;8.70;99.90;;;;;;4993909;28;20492;-66
2024/01/03 00:10:57;;;;;;;0.82;0.80;;;8.80;99.90;;;;;;4993947;28;20045;-65
2024/01/03 00:13:44;;;;;;;2.50;1.23;;;8.40;99.90;;;;;;4993443;28;20104;-65
2024/01/03 00:16:28;;;;;;;3.70;1.20;;;8.40;99.90;;;;;;4993775;28;20070;-66
2024/01/03 00:18:57;;;;;;;0.60;0.60;;;8.70;99.90;;;;;;4993495;28;20073;-66
2024/01/03 00:21:25;;;;;;;1.60;1.10;;;8.40;99.90;;;;;;4993650;28;20034;-66
2024/01/03 00:23:58;;;;;;;0.80;0.75;;;8.30;99.90;;;;;;4993403;28;20044;-65
2024/01/03 00:26:29;;;;;;;0.88;0.80;;;8.40;99.90;;;;;;4992122;28;20042;-66
2024/01/03 00:28:56;;;;;;;0.93;0.93;;;8.60;99.90;;;;;;4993602;28;20050;-66
2024/01/03 00:31:37;;;;;;;0.85;0.85;;;8.50;99.90;;;;;;4992387;28;20136;-66
2024/01/03 00:34:04;;;;;;;;;;;8.40;99.90;;;;;;4994054;28;20034;-66
2024/01/03 00:36:30;;;;;;;0.85;0.80;;;8.70;99.90;;;;;;4993538;28;19957;-65
2024/01/03 00:38:56;;;;;;;5.45;1.33;;;8.50;99.90;;;;;;4993477;28;20081;-65
2024/01/03 00:41:21;;;;;;;2.78;1.05;;;8.40;99.90;;;;;;4993651;28;20466;-66
2024/01/03 00:43:47;;;;;;;0.85;0.82;;;8.30;99.90;;;;;;4993401;28;20050;-66
2024/01/03 00:46:13;;;;;;;2.00;1.13;;;8.40;99.90;;;;;;4993288;28;20049;-65
2024/01/03 00:48:40;;;;;;;0.63;0.63;;;8.40;99.90;;;;;;4993009;28;20426;-66
2024/01/03 00:51:07;;;;;;;1.25;1.00;;;8.60;99.90;;;;;;4993032;28;20043;-66
2024/01/03 00:53:33;;;;;;;0.80;0.80;;;8.70;99.90;;;;;;4993273;28;20132;-68
2024/01/03 00:55:59;;;;;;;2.17;0.95;;;8.30;99.90;;;;;;4992835;28;20553;-66
2024/01/03 00:58:24;;;;;;;2.38;0.88;;;8.30;99.90;;;;;;4993209;28;20414;-66
2024/01/03 01:00:50;;;;;;;1.20;0.70;;;8.20;99.90;;;;;;4991568;28;20101;-65
2024/01/03 01:03:17;;;;;;;1.80;1.05;;;8.20;99.90;;;;;;4992956;28;20097;-66
2024/01/03 01:05:43;;;;;;;2.05;1.10;;;8.20;99.90;;;;;;4992351;28;20100;-66
2024/01/03 01:08:08;;;;;;;0.65;0.65;;;8.40;99.90;;;;;;4993158;28;20393;-67
2024/01/03 01:10:34;;;;;;;0.95;0.80;;;8.20;99.90;;;;;;4993055;28;20038;-67
2024/01/03 01:13:00;;;;;;;1.40;1.00;;;8.10;99.90;;;;;;4992761;28;20057;-67
2024/01/03 01:15:25;;;;;;;2.70;1.33;;;8.30;99.90;;;;;;4992966;28;20444;-66
2024/01/03 01:17:51;;;;;;;1.42;1.20;;;8.10;99.90;;;;;;4992758;28;20042;-67
2024/01/03 01:20:17;;;;;;;1.20;0.80;;;8.40;99.90;;;;;;4992900;28;20047;-67
2024/01/03 01:22:42;;;;;;;2.05;1.10;;;8.10;99.90;;;;;;4992855;28;20479;-67
2024/01/03 01:25:08;;;;;;;1.85;0.70;;;8.40;99.90;;;;;;4992533;28;20046;-67
2024/01/03 01:27:34;;;;;;;3.25;1.58;;;8.10;99.90;;;;;;4992647;28;20048;-67
2024/01/03 01:29:59;;;;;;;1.38;0.90;;;8.00;99.90;;;;;;4992865;28;20394;-67
2024/01/03 01:32:25;;;;;;;1.17;0.80;;;8.10;99.90;;;;;;4992793;28;20469;-67
2024/01/03 01:34:51;;;;;;;1.67;0.82;;;8.50;99.90;;;;;;4992760;28;20438;-67
2024/01/03 01:37:16;;;;;;;3.65;1.48;;;8.20;99.90;;;;;;4992471;28;20034;-67
2024/01/03 01:39:44;;;;;;;1.05;0.90;;;8.40;99.90;;;;;;4992733;28;20038;-67
2024/01/03 01:42:10;;;;;;;2.25;1.25;;;8.20;99.90;;;;;;4992356;28;20133;-67
2024/01/03 01:44:36;;;;;;;0.93;0.80;;;8.20;99.90;;;;;;4992686;28;20129;-67
2024/01/03 01:47:02;;;;;;;1.60;1.00;;;8.50;99.90;;;;;;4992710;28;20065;-67
2024/01/03 01:49:28;;;;;;;0.80;0.80;;;8.30;99.90;;;;;;4991395;28;20046;-67
2024/01/03 01:51:54;;;;;;;1.10;0.85;;;8.50;99.90;;;;;;4991175;28;20109;-67
2024/01/03 01:54:20;;;;;;;0.90;0.70;;;8.40;99.90;;;;;;4992547;28;20050;-67
2024/01/03 01:56:47;;;;;;;1.30;0.80;;;8.40;99.90;;;;;;4992280;28;20054;-67
2024/01/03 01:59:14;;;;;;;2.30;1.00;;;8.40;99.90;;;;;;4992362;28;20046;-67
2024/01/03 02:01:40;;;;;;;1.20;0.98;;;8.40;99.90;;;;;;4992497;28;20050;-67
2024/01/03 02:04:07;;;;;;;2.13;1.10;;;8.60;99.90;;;;;;4992579;28;20104;-68
2024/01/03 02:06:35;;;;;;;0.80;0.80;;;8.40;99.90;;;;;;4991159;28;20138;-67
2024/01/03 02:09:00;;;;;;;0.60;0.50;;;8.30;99.90;;;;;;4992408;28;20513;-67
2024/01/03 02:11:26;;;;;;;1.00;0.75;;;8.40;99.90;;;;;;4992269;28;20038;-67
2024/01/03 02:13:52;;;;;;;1.67;0.98;;;8.70;99.90;;;;;;4992035;28;20090;-67
2024/01/03 02:16:18;;;;;;;0.88;0.80;;;8.40;99.90;;;;;;4993984;28;20054;-67
2024/01/03 02:18:43;;;;;;;2.42;1.02;;;8.40;99.90;;;;;;4996155;28;20401;-67
2024/01/03 02:21:16;;;;;;;0.85;0.70;;;8.80;99.90;;;;;;4994726;28;20053;-67
2024/01/03 02:23:45;;;;;;;1.90;1.15;;;8.40;99.90;;;;;;4995904;28;20044;-67
2024/01/03 02:26:11;;;;;;;0.90;0.60;;;8.90;99.90;;;;;;4995854;28;20453;-67
2024/01/03 02:28:37;;;;;;;1.27;0.77;;;8.50;99.90;;;;;;4995747;28;20318;-66
2024/01/03 02:31:03;;;;;;;1.25;0.85;;;8.50;99.90;;;;;;4995920;28;20038;-66
2024/01/03 02:33:29;;;;;;;1.90;1.10;;;8.50;99.90;;;;;;4995752;28;20133;-66
2024/01/03 02:35:54;;;;;;;1.95;0.90;;;8.90;99.90;;;;;;4995427;28;20490;-66
2024/01/03 02:38:23;;;;;;;1.77;1.15;;;8.50;99.90;;;;;;4995576;28;20049;-66
2024/01/03 02:40:51;;;;;;;1.70;0.70;;;8.80;99.90;;;;;;4995632;28;20050;-66
2024/01/03 02:43:17;;;;;;;1.00;0.70;;;8.70;99.90;;;;;;4995266;28;20046;-66
2024/01/03 02:45:42;;;;;;;1.95;0.90;;;8.60;99.90;;;;;;4995531;28;20497;-66
2024/01/03 02:48:08;;;;;;;0.73;0.70;;;8.70;99.90;;;;;;4995136;28;20495;-66
2024/01/03 02:50:34;;;;;;;1.45;0.98;;;8.70;99.90;;;;;;4995468;28;20046;-66
2024/01/03 02:53:01;;;;;;;1.20;0.80;;;8.80;99.90;;;;;;4993762;28;20061;-66
2024/01/03 02:55:27;;;;;;;1.63;0.90;;;9.10;99.90;;;;;;4995368;28;20046;-66
2024/01/03 02:57:52;;;;;;;3.28;0.88;;;8.70;99.90;;;;;;4994060;28;20053;-66
2024/01/03 03:00:18;;;;;;;1.73;0.70;;;8.80;99.90;;;;;;4995018;28;20047;-66
2024/01/03 03:02:44;;;;;;;1.05;0.80;;;8.80;99.90;;;;;;4994842;28;20053;-66
2024/01/03 03:05:09;;;;;;;0.50;0.50;;;8.90;99.90;;;;;;4995218;28;20125;-66
2024/01/03 03:07:36;;;;;;;1.00;0.90;;;9.20;99.90;;;;;;4993920;28;20437;-66
2024/01/03 03:10:02;;;;;;;0.77;0.50;;;8.80;99.90;;;;;;4993971;28;20391;-66
2024/01/03 03:12:28;;;;;;;2.75;0.85;;;8.90;99.90;;;;;;4993308;28;20058;-66
2024/01/03 03:14:53;;;;;;;1.27;0.90;;;9.20;99.90;;;;;;4995039;28;20042;-66
2024/01/03 03:17:19;;;;;;;1.55;0.88;;;8.80;99.90;;;;;;4994957;28;20515;-66
2024/01/03 03:19:45;;;;;;;1.90;1.00;;;9.00;99.90;;;;;;4994975;28;20405;-66
2024/01/03 03:22:10;;;;;;;1.42;0.93;;;8.80;99.90;;;;;;4994814;28;20049;-66
2024/01/03 03:24:36;;;;;;;0.68;0.68;;;8.80;99.90;;;;;;4993680;28;20038;-66
2024/01/03 03:27:01;;;;;;;0.88;0.85;;;8.60;99.90;;;;;;4994715;28;20069;-66
2024/01/03 03:29:27;;;;;;;0.95;0.80;;;8.60;99.90;;;;;;4993359;28;20089;-67
2024/01/03 03:31:53;;;;;;;0.65;0.65;;;8.80;99.90;;;;;;4994721;28;20097;-67
2024/01/03 03:34:19;;;;;;;1.95;1.13;;;8.60;99.90;;;;;;4994663;28;20486;-67
2024/01/03 03:36:45;;;;;;;1.15;0.85;;;8.60;99.90;;;;;;4994371;28;20050;-67
2024/01/03 03:39:10;;;;;;;0.90;0.90;;;8.90;99.90;;;;;;4994447;28;20038;-67
2024/01/03 03:41:37;;;;;;;0.70;0.70;;;8.60;99.90;;;;;;4994444;28;20099;-68
2024/01/03 03:44:03;;;;;;;1.48;1.02;;;8.50;99.90;;;;;;4992975;28;20050;-67
2024/01/03 03:46:29;;;;;;;1.67;0.70;;;8.50;99.90;;;;;;4993158;28;20042;-67
2024/01/03 03:48:55;;;;;;;1.02;0.70;;;8.40;99.90;;;;;;4994407;28;20383;-67
2024/01/03 03:51:20;;;;;;;0.70;0.70;;;8.40;99.90;;;;;;4994279;28;20041;-67
2024/01/03 03:53:46;;;;;;;1.10;0.70;;;8.50;99.90;;;;;;4992836;28;20525;-67
2024/01/03 03:56:22;;;;;;;0.50;0.50;;;8.10;99.90;;;;;;4994260;28;20085;-67
2024/01/03 03:58:48;;;;;;;0.65;0.60;;;;;;;;;;4993930;28;20050;-67
2024/01/03 04:01:13;;;;;;;0.60;0.60;;;;;;;;;;4994177;28;20046;-66
2024/01/03 04:03:40;;;;;;;0.57;0.57;;;;;;;;;;4993994;28;20409;-66
2024/01/03 04:06:05;;;;;;;0.90;0.65;;;8.30;99.90;;;;;;4992522;28;20173;-67
2024/01/03 04:08:31;;;;;;;0.57;0.57;;;8.30;99.90;;;;;;4994063;28;20117;-67
2024/01/03 04:10:57;;;;;;;0.60;0.60;;;8.10;99.90;;;;;;4993647;28;20034;-67
2024/01/03 04:13:22;;;;;;;0.60;0.60;;;8.60;99.90;;;;;;4993651;28;20140;-67
2024/01/03 04:15:48;;;;;;;0.85;0.60;;;8.30;99.90;;;;;;4993836;28;20046;-67
2024/01/03 04:18:14;;;;;;;1.70;0.63;;;8.30;99.90;;;;;;4992575;28;20118;-67
2024/01/03 04:20:39;;;;;;;0.45;0.45;;;8.10;99.90;;;;;;4993748;28;20478;-66
2024/01/03 04:23:05;;;;;;;1.25;0.85;;;8.10;99.90;;;;;;4993672;28;20042;-66
2024/01/03 04:25:31;;;;;;;0.85;0.73;;;;;;;;;;4993674;28;20546;-66
2024/01/03 04:27:57;;;;;;;0.77;0.50;;;;;;;;;;4993658;28;20038;-66
2024/01/03 04:30:23;;;;;;;0.70;0.60;;;;;;;;;;4993578;28;20497;-66
2024/01/03 04:32:49;;;;;;;0.95;0.70;;;;;;;;;;4993255;28;20042;-67
2024/01/03 04:35:15;;;;;;;0.50;0.50;;;;;;;;;;4993580;28;20050;-66
2024/01/03 04:37:41;;;;;;;0.68;0.65;;;;;;;;;;4991918;28;20038;-66
2024/01/03 04:40:08;;;;;;;1.00;0.60;;;;;;;;;;4993483;28;20093;-66
2024/01/03 04:42:34;;;;;;;0.88;0.77;;;;;;;;;;4993403;28;20054;-66
2024/01/03 04:45:00;;;;;;;1.23;0.80;;;;;;;;;;4991780;28;20053;-66
2024/01/03 04:47:26;;;;;;;0.90;0.73;;;;;;;;;;4993368;28;20121;-66
2024/01/03 04:49:52;;;;;;;0.95;0.85;;;;;;;;;;4993310;28;20429;-67
2024/01/03 04:52:18;;;;;;;5.07;2.00;;;;;;;;;;4993145;28;20506;-67
2024/01/03 04:54:44;;;;;;;2.20;1.42;;;;;;;;;;4993242;28;20041;-67
2024/01/03 04:57:10;;;;;;;3.20;1.55;;;;;;;;;;4975421;28;20050;-66
2024/01/03 04:59:36;;;;;;;4.75;1.92;;;9.00;99.90;;;;;;4992748;28;20089;-67
2024/01/03 05:02:02;;;;;;;5.50;1.90;;;8.60;99.90;;;;;;4993214;28;20089;-67
2024/01/03 05:04:27;;;;;;;2.88;1.73;;;8.60;99.90;;;;;;4992646;28;20037;-67
2024/01/03 05:06:53;;;;;;;3.70;1.67;;;8.60;99.90;;;;;;4992972;28;20048;-67
2024/01/03 05:09:19;;;;;;;4.30;1.95;;;8.80;99.90;;;;;;4992877;28;20141;-67
2024/01/03 05:11:44;;;;;;;4.30;1.67;;;8.70;99.90;;;;;;4991460;28;20050;-67
2024/01/03 05:14:10;;;;;;;3.72;1.58;;;9.30;99.90;;;;;;4992600;28;20058;-67
2024/01/03 05:16:35;;;;;;;3.20;1.73;;;9.30;99.90;;;;;;4992886;28;20042;-67
2024/01/03 05:19:01;;;;;;;2.63;1.48;;;9.40;99.90;;;;;;4992922;28;20046;-67
2024/01/03 05:21:27;;;;;;;3.30;1.70;;;9.10;99.90;;;;;;4992459;28;20038;-67
2024/01/03 05:23:52;;;;;;;3.13;1.42;;;9.10;99.90;;;;;;4992804;28;20121;-67
2024/01/03 05:26:18;;;;;;;2.10;1.33;;;9.20;99.90;;;;;;4992772;28;20528;-67
2024/01/03 05:28:44;;;;;;;5.00;1.92;;;9.10;99.90;;;;;;4992712;28;20129;-67
2024/01/03 05:31:10;;;;;;;3.03;1.38;;;9.10;99.90;;;;;;4991534;28;20042;-67
2024/01/03 05:33:35;;;;;;;4.28;1.67;;;9.20;99.90;;;;;;4992707;28;20454;-67
2024/01/03 05:36:03;;;;;;;3.10;2.03;;;9.40;99.90;;;;;;4992421;28;20042;-67
2024/01/03 05:38:29;;;;;;;3.47;1.98;;;9.10;99.90;;;;;;4993038;28;20509;-67
2024/01/03 05:40:55;;;;;;;3.88;1.90;;;9.10;99.90;;;;;;4992634;28;20145;-67
2024/01/03 05:43:21;;;;;;;2.63;1.75;;;9.30;99.90;;;;;;4992584;28;20124;-67
2024/01/03 05:45:47;;;;;;;0.93;0.80;;;9.20;99.90;;;;;;4992356;28;20406;-67
2024/01/03 05:48:12;;;;;;;2.28;1.42;;;9.30;99.90;;;;;;4991405;28;20160;-67
2024/01/03 05:50:38;;;;;;;1.55;1.17;;;9.10;99.90;;;;;;4992907;28;20084;-66
2024/01/03 05:53:03;;;;;;;2.33;0.93;;;9.20;99.90;;;;;;4996530;28;20047;-66
2024/01/03 05:55:29;;;;;;;1.65;1.23;;;9.20;99.90;;;;;;4996473;28;20042;-66
2024/01/03 05:57:55;;;;;;;2.85;1.38;;;9.50;99.90;;;;;;4996548;28;20162;-66
2024/01/03 06:00:21;;;;;;;2.63;1.52;;;9.30;99.90;;;;;;4996284;28;20046;-67
2024/01/03 06:02:46;;;;;;;3.25;1.67;;;9.20;99.90;;;;;;4996372;28;20057;-67
2024/01/03 06:05:16;;;;;;;3.53;1.40;;;9.20;99.90;;;;;;4996299;28;20042;-67
2024/01/03 06:07:44;;;;;;;3.30;1.33;;;9.20;99.90;;;;;;4996332;28;20425;-67
2024/01/03 06:10:10;;;;;;;2.85;1.42;;;9.30;99.90;;;;;;4996206;28;20491;-67
2024/01/03 06:12:36;;;;;;;3.42;1.73;;;9.40;99.90;;;;;;4995993;28;20062;-67
2024/01/03 06:15:01;;;;;;;3.22;1.58;;;9.60;99.90;;;;;;4995958;28;20096;-67
2024/01/03 06:17:27;;;;;;;2.13;1.30;;;9.40;99.90;;;;;;4996094;28;20042;-67
2024/01/03 06:19:52;;;;;;;2.83;1.58;;;9.30;99.90;;;;;;4996030;28;20045;-68
2024/01/03 06:22:18;;;;;;;2.25;1.23;;;9.30;99.90;;;;;;4995560;28;20050;-68
2024/01/03 06:24:44;;;;;;;0.65;0.57;;;9.30;99.90;;;;;;4995842;28;20046;-67
2024/01/03 06:27:09;;;;;;;5.00;1.73;;;9.30;99.90;;;;;;4995624;28;20034;-67
2024/01/03 06:29:35;;;;;;;3.55;1.63;;;9.60;99.90;;;;;;4994595;28;20053;-67
2024/01/03 06:32:01;;;;;;;2.30;1.20;;;9.50;99.90;;;;;;4994627;28;20042;-67
2024/01/03 06:34:26;;;;;;;2.97;1.40;;;9.30;99.90;;;;;;4995739;28;20038;-67
2024/01/03 06:36:52;;;;;;;3.28;1.15;;;9.60;99.90;;;;;;4995697;28;20471;-67
2024/01/03 06:39:18;;;;;;;2.60;1.67;;;9.30;99.90;;;;;;4995465;28;20038;-67
2024/01/03 06:41:43;;;;;;;1.52;1.08;;;9.30;99.90;;;;;;4995279;28;20049;-67
2024/01/03 06:44:09;;;;;;;5.45;1.77;;;9.60;99.90;;;;;;4995499;28;20073;-68
2024/01/03 06:46:34;;;;;;;2.85;1.50;;;9.40;99.90;;;;;;4995551;28;20574;-67
2024/01/03 06:49:00;;;;;;;1.73;1.30;;;9.30;99.90;;;;;;4995454;28;20407;-67
2024/01/03 06:51:26;;;;;;;2.17;1.08;;;9.20;99.90;;;;;;4995214;28;20034;-67
2024/01/03 06:53:51;;;;;;;1.48;0.98;;;9.20;99.90;;;;;;4995385;28;20065;-67
2024/01/03 06:56:21;;;;;;;1.20;0.80;;;9.30;99.90;;;;;;4995382;28;20038;-68
2024/01/03 06:58:47;;;;;;;1.17;1.05;;;9.60;99.90;;;;;;4995338;28;20046;-69
2024/01/03 07:01:13;;;;;;;1.10;0.70;;;9.30;99.90;;;;;;4995055;28;20057;-66
2024/01/03 07:03:38;;;;;;;1.77;0.90;;;9.60;99.90;;;;;;4993987;28;20050;-69
2024/01/03 07:06:04;;;;;;;1.95;0.90;;;9.70;99.90;;;;;;4995193;28;20399;-69
2024/01/03 07:08:30;;;;;;;1.17;0.88;;;9.30;99.90;;;;;;4995072;28;20039;-67
2024/01/03 07:10:55;;;;;;;2.30;1.10;;;9.30;99.90;;;;;;4995261;28;20085;-66
2024/01/03 07:13:21;;;;;;;2.72;1.35;;;9.60;99.90;;;;;;4994650;28;20137;-66
2024/01/03 07:15:47;;;;;;;2.20;1.27;;;9.20;99.90;;;;;;4995013;28;20050;-67
2024/01/03 07:18:12;;;;;;;2.53;1.33;;;9.60;99.90;;;;;;4995055;28;20478;-68
2024/01/03 07:20:38;;;;;;;2.60;1.15;;;9.10;99.90;;;;;;4994945;28;20038;-66
2024/01/03 07:23:04;;;;;;;3.42;1.38;;;9.20;99.90;;;;;;4994817;28;20046;-66
2024/01/03 07:25:29;;;;;;;2.85;1.52;;;9.40;99.90;;;;;;4993591;28;20108;-68
2024/01/03 07:27:55;;;;;;;2.58;1.10;;;9.10;99.90;;;;;;4993418;28;20504;-66
2024/01/03 07:30:25;;;;;;;1.52;1.10;;;9.10;99.90;;;;;;4994754;28;20109;-66
2024/01/03 07:32:51;;;;;;;2.67;1.80;;;9.40;99.90;;;;;;4994422;28;20050;-65
2024/01/03 07:35:17;;;;;;;4.20;2.13;;;9.00;99.90;;;;;;4994674;28;20046;-65
2024/01/03 07:37:43;;;;;;;1.83;1.23;;;9.00;99.90;;;;;;4994740;28;20401;-65
2024/01/03 07:40:09;;;;;;;2.05;1.65;;;9.00;99.90;;;;;;4994512;28;20493;-65
2024/01/03 07:42:35;;;;;;;2.13;1.35;;;9.00;99.90;;;;;;4994581;28;20054;-70
2024/01/03 07:45:01;;;;;;;2.70;1.50;;;9.40;99.90;;;;;;4993028;28;20402;-64
2024/01/03 07:47:27;;;;;;;3.67;1.63;;;9.00;99.90;;;;;;4994221;28;20039;-64
2024/01/03 07:49:53;;;;;;;4.13;1.85;;;9.30;99.90;;;;;;4994072;28;20038;-64
2024/01/03 07:52:18;;;;;;;3.97;1.65;;;8.80;99.90;;;;;;4994412;28;20092;-65
2024/01/03 07:54:44;;;;;;;2.53;1.75;;;9.20;99.90;;;;;;4976672;28;20433;-65
2024/01/03 07:57:10;;;;;;;3.13;1.40;;;9.00;99.90;;;;;;4994286;28;20041;-65
2024/01/03 07:59:36;;;;;;;4.05;2.00;;;9.60;99.90;;;;;;4994009;28;20125;-67
2024/01/03 08:02:01;;;;;;;2.35;1.42;;;9.00;99.90;;;;;;4994118;28;20046;-65
2024/01/03 08:04:28;;;;;;;2.88;1.65;;;9.20;99.90;;;;;;4994151;28;20502;-65
2024/01/03 08:06:53;;;;;;;2.90;1.60;;;9.00;99.90;;;;;;4992425;28;20129;-67
2024/01/03 08:09:19;;;;;;;1.42;0.93;;;8.90;99.90;;;;;;4994270;28;20173;-65
2024/01/03 08:11:44;;;;;;;1.70;0.90;;;9.20;99.90;;;;;;4993976;28;20121;-65
2024/01/03 08:14:10;;;;;;;1.48;0.90;;;9.20;99.90;;;;;;4992382;28;20553;-65
2024/01/03 08:16:36;;;;;;;1.90;1.10;;;8.80;99.90;;;;;;4993611;28;20078;-65
2024/01/03 08:19:01;;;;;;;1.40;0.80;;;9.10;99.90;;;;;;4994020;28;20394;-65
2024/01/03 08:21:27;;;;;;;4.07;1.20;;;8.90;99.90;;;;;;4993866;28;20406;-65
2024/01/03 08:23:53;;;;;;;1.20;1.05;;;8.80;99.90;;;;;;4993815;28;20042;-65
2024/01/03 08:26:19;;;;;;;1.65;1.20;;;9.10;99.90;;;;;;4993732;28;20468;-65
2024/01/03 08:28:45;;;;;;;1.23;0.70;;;8.90;99.90;;;;;;4993650;28;20035;-65
2024/01/03 08:31:15;;;;;;;1.40;0.95;;;8.90;99.90;;;;;;4993459;28;20510;-65
2024/01/03 08:33:41;;;;;;;2.35;1.05;;;8.90;99.90;;;;;;4993658;28;20042;-65
2024/01/03 08:36:12;;;;;;;2.10;1.38;;;8.70;99.90;;;;;;4993570;28;20504;-65
2024/01/03 08:38:38;;;;;;;1.55;1.08;;;8.80;99.90;;;;;;4993551;28;20486;-65
2024/01/03 08:41:11;;;;;;;3.22;1.52;;;8.80;99.90;;;;;;4993542;28;20038;-65
2024/01/03 08:43:36;;;;;;;3.00;1.30;;;8.90;99.90;;;;;;4993050;28;20053;-65
2024/01/03 08:46:05;;;;;;;2.85;1.42;;;9.20;99.90;;;;;;4993388;28;20038;-65
2024/01/03 08:48:31;;;;;;;1.92;1.10;;;9.00;99.90;;;;;;4992939;28;20049;-65
2024/01/03 08:50:57;;;;;;;2.38;1.35;;;9.20;99.90;;;;;;4993281;28;20422;-69
2024/01/03 08:53:23;;;;;;;1.15;0.75;;;9.00;99.90;;;;;;4993268;28;20038;-65
2024/01/03 08:55:48;;;;;;;2.30;1.50;;;9.20;99.90;;;;;;4993088;28;20166;-65
2024/01/03 08:58:14;;;;;;;1.05;0.77;;;9.20;99.90;;;;;;4993214;28;20054;-65
2024/01/03 09:00:42;;;;;;;1.75;0.75;;;9.30;99.90;;;;;;4993285;28;20493;-65
2024/01/03 09:03:08;;;;;;;2.70;1.45;;;9.40;99.90;;;;;;4991571;28;20042;-65
2024/01/03 09:05:33;;;;;;;2.30;1.20;;;9.10;99.90;;;;;;4993159;28;20052;-65
2024/01/03 09:07:59;;;;;;;1.77;0.90;;;9.20;99.90;;;;;;4993108;28;20482;-65
2024/01/03 09:10:24;;;;;;;1.85;1.27;;;9.30;99.90;;;;;;4992794;28;20120;-65
2024/01/03 09:12:50;;;;;;;3.67;1.45;;;9.60;99.90;;;;;;4992963;28;20058;-65
2024/01/03 09:15:16;;;;;;;2.97;1.15;;;9.30;99.90;;;;;;4992925;28;20505;-65
2024/01/03 09:17:44;;;;;;;2.58;1.17;;;9.30;99.90;;;;;;4992974;28;20042;-65
2024/01/03 09:20:15;;;;;;;2.45;1.40;;;9.30;99.90;;;;;;4993004;28;20049;-65
2024/01/03 09:22:41;;;;;;;;;;;9.30;99.90;;;;;;4991704;28;20048;-65
2024/01/03 09:25:07;;;;;;;1.90;1.20;;;9.10;99.90;;;;;;4992400;28;20352;-65
2024/01/03 09:27:33;;;;;;;2.13;1.08;;;9.40;99.90;;;;;;4992418;28;20042;-66
2024/01/03 09:29:58;;;;;;;3.55;1.70;;;9.40;99.90;;;;;;4993070;28;20121;-65
2024/01/03 09:32:24;;;;;;;2.65;1.10;;;9.40;99.90;;;;;;4991408;28;20082;-66
2024/01/03 09:34:49;;;;;;;2.13;1.02;;;9.60;99.90;;;;;;4992732;28;20049;-65
2024/01/03 09:37:16;;;;;;;2.38;1.17;;;9.20;99.90;;;;;;4992783;28;20398;-65
2024/01/03 09:39:42;;;;;;;1.92;1.17;;;9.40;99.90;;;;;;4992669;28;20038;-67
2024/01/03 09:42:08;;;;;;;1.55;0.90;;;9.30;99.90;;;;;;4992680;28;20054;-67
2024/01/03 09:44:34;;;;;;;3.60;1.27;;;9.20;99.90;;;;;;4992431;28;20055;-67
2024/01/03 09:47:01;;;;;;;1.92;1.00;;;9.20;99.90;;;;;;4992492;28;20053;-67
2024/01/03 09:49:26;;;;;;;1.83;1.42;;;9.20;99.90;;;;;;4992431;28;20084;-67
2024/01/03 09:51:54;;;;;;;2.97;1.10;;;9.20;99.90;;;;;;4992406;28;20039;-67
2024/01/03 09:54:20;;;;;;;1.77;1.30;;;9.50;99.90;;;;;;4992380;28;20123;-67
2024/01/03 09:56:47;;;;;;;1.88;0.95;;;9.60;99.90;;;;;;4992648;28;20090;-67
2024/01/03 09:59:17;;;;;;;1.42;1.05;;;9.30;99.90;;;;;;4992669;28;20042;-67
2024/01/03 10:01:54;;;;;;;1.52;1.20;;;9.40;99.90;;;;;;4991031;28;20072;-67
2024/01/03 10:04:20;;;;;;;4.25;1.27;;;9.40;99.90;;;;;;4992562;28;20386;-67
2024/01/03 10:06:53;;;;;;;1.60;0.98;;;9.40;99.90;;;;;;4992191;28;20034;-67
2024/01/03 10:09:20;;;;;;;2.10;1.40;;;9.40;99.90;;;;;;4992230;28;20057;-67
2024/01/03 10:11:46;;;;;;;1.73;1.17;;;9.60;99.90;;;;;;4992464;28;20041;-67
2024/01/03 10:14:20;;;;;;;1.83;0.90;;;9.80;99.90;;;;;;4992086;28;20513;-67
2024/01/03 10:16:46;;;;;;;2.25;1.00;;;9.60;99.90;;;;;;4992175;28;20045;-67
2024/01/03 10:19:13;;;;;;;1.67;1.08;;;9.50;99.90;;;;;;4992346;28;20398;-67
2024/01/03 10:21:49;;;;;;;1.33;0.90;;;9.40;99.90;;;;;;4992375;28;20113;-66
2024/01/03 10:24:19;;;;;;;1.52;0.95;;;9.50;99.90;;;;;;4992366;28;20453;-67
2024/01/03 10:26:45;;;;;;;1.13;0.77;;;9.60;99.90;;;;;;4992427;28;20411;-67
2024/01/03 10:29:18;;;;;;;2.42;1.20;;;9.60;99.90;;;;;;4992289;28;20081;-68
2024/01/03 10:31:48;;;;;;;3.88;1.10;;;9.60;99.90;;;;;;4991053;28;20049;-66
2024/01/03 10:34:23;;;;;;;1.33;0.90;;;9.70;99.90;;;;;;4992096;28;20053;-70
2024/01/03 10:36:50;;;;;;;1.55;0.93;;;9.70;99.90;;;;;;4992026;28;20365;-66
2024/01/03 10:39:19;;;;;;;1.70;0.90;;;9.70;99.90;;;;;;4995915;28;20390;-66
2024/01/03 10:41:46;;;;;;;2.70;1.17;;;9.70;99.90;;;;;;4995613;28;20046;-68
2024/01/03 10:44:14;;;;;;;1.13;0.90;;;9.70;99.90;;;;;;4995970;28;20368;-67
2024/01/03 10:46:47;;;;;;;1.20;0.80;;;9.80;99.90;;;;;;4995415;28;20042;-67
2024/01/03 10:49:15;;;;;;;2.05;0.73;;;9.70;99.90;;;;;;4995380;28;20046;-65
2024/01/03 10:51:43;;;;;;;2.90;0.90;;;9.80;99.90;;;;;;4995601;28;20046;-65
2024/01/03 10:54:11;;;;;;;0.90;0.75;;;9.80;99.90;;;;;;4995475;28;20089;-65
2024/01/03 10:56:37;;;;;;;1.52;0.80;;;9.90;99.90;;;;;;4995505;28;20047;-65
2024/01/03 10:59:08;;;;;;;1.30;0.90;;;9.90;99.90;;;;;;4995392;28;20057;-65
2024/01/03 11:01:44;;;;;;;2.42;1.00;;;10.00;99.90;;;;;;4993804;28;20049;-64
2024/01/03 11:04:11;;;;;;;1.98;1.25;;;10.00;99.90;;;;;;4994959;28;20046;-65
2024/01/03 11:06:45;;;;;;;1.38;0.90;;;9.90;99.90;;;;;;4995238;28;20052;-65
2024/01/03 11:09:12;;;;;;;1.90;1.30;;;10.00;99.90;;;;;;4994240;28;20261;-66
2024/01/03 11:11:38;;;;;;;1.58;1.08;;;10.00;99.90;;;;;;4994999;28;20042;-66
2024/01/03 11:14:19;;;;;;;2.28;1.13;;;10.00;99.90;;;;;;4994748;28;20054;-65
2024/01/03 11:16:45;;;;;;;2.10;1.08;;;10.30;99.90;;;;;;4994740;28;20046;-65
2024/01/03 11:19:11;;;;;;;2.42;1.30;;;10.10;99.90;;;;;;4995081;28;20440;-65
2024/01/03 11:21:38;;;;;;;2.00;1.17;;;9.90;99.90;;;;;;4994912;28;20066;-65
2024/01/03 11:24:27;;;;;;;3.80;1.75;;;9.90;99.90;;;;;;4994995;28;20050;-65
2024/01/03 11:26:53;;;;;;;2.38;1.60;;;9.90;99.90;;;;;;4993354;28;20096;-65
2024/01/03 11:29:44;;;;;;;1.50;0.95;;;9.80;99.90;;;;;;4994833;28;20160;-65
2024/01/03 11:32:13;;;;;;;3.03;1.33;;;10.00;99.90;;;;;;4994857;28;20121;-64
2024/01/03 11:34:44;;;;;;;2.78;1.17;;;10.00;99.90;;;;;;4994436;28;20045;-64
2024/01/03 11:37:16;;;;;;;;;;;9.80;99.90;;;;;;4993875;28;20394;-65
2024/01/03 11:39:43;;;;;;;3.30;1.35;;;9.80;99.90;;;;;;4994687;28;19921;-64
2024/01/03 11:42:33;;;;;;;5.15;2.17;;;9.70;99.90;;;;;;4994571;28;20398;-64
2024/01/03 11:45:13;;;;;;;3.90;1.42;;;9.70;99.90;;;;;;4991091;28;20050;-64
2024/01/03 11:47:46;;;;;;;3.00;1.50;;;9.80;99.90;;;;;;4994263;28;20047;-64
2024/01/03 11:50:16;;;;;;;2.65;1.42;;;9.80;99.90;;;;;;4993961;28;20034;-64
2024/01/03 11:52:47;;;;;;;2.97;1.70;;;9.80;99.90;;;;;;4994204;28;20043;-64
2024/01/03 11:55:16;;;;;;;2.97;1.30;;;9.90;99.90;;;;;;4993204;28;20046;-64
2024/01/03 11:57:46;;;;;;;3.55;1.55;;;9.90;99.90;;;;;;4993972;28;20046;-63
2024/01/03 12:00:14;;;;;;;3.40;1.67;;;10.00;99.90;;;;;;4994320;28;20096;-66
2024/01/03 12:02:55;;;;;;;2.72;1.45;;;9.90;99.90;;;;;;4994078;28;20351;-66
2024/01/03 12:05:26;;;;;;;1.60;1.00;;;10.00;99.90;;;;;;4993710;28;20050;-65
2024/01/03 12:07:53;;;;;;;1.73;1.13;;;9.90;99.90;;;;;;4994022;28;20048;-66
2024/01/03 12:10:21;;;;;;;3.28;2.03;;;9.90;99.90;;;;;;4993528;28;20049;-66
2024/01/03 12:12:47;;;;;;;1.90;1.23;;;9.90;99.90;;;;;;4993626;28;20113;-66
2024/01/03 12:15:25;;;;;;;3.47;1.50;;;9.90;99.90;;;;;;4993656;28;20046;-66
2024/01/03 12:17:51;;;;;;;3.80;1.60;;;10.10;99.90;;;;;;4993624;28;20046;-66
2024/01/03 12:20:19;;;;;;;4.13;1.60;;;10.10;99.90;;;;;;4993782;28;20379;-66
2024/01/03 12:22:44;;;;;;;2.72;1.38;;;9.80;99.90;;;;;;4993333;28;20053;-66
2024/01/03 12:25:18;;;;;;;5.35;1.63;;;9.90;99.90;;;;;;4993702;28;20038;-66
2024/01/03 12:27:44;;;;;;;6.72;1.92;;;9.90;99.90;;;;;;4993422;28;20084;-67
2024/01/03 12:30:14;;;;;;;3.15;1.83;;;10.00;99.90;;;;;;4993708;28;20077;-66
2024/01/03 12:32:40;;;;;;;2.67;1.70;;;10.00;99.90;;;;;;4992107;28;20045;-66
2024/01/03 12:35:06;;;;;;;2.05;1.35;;;10.00;99.90;;;;;;4993280;28;20030;-66
2024/01/03 12:37:32;;;;;;;3.35;1.40;;;10.10;99.90;;;;;;4993562;28;20053;-66
2024/01/03 12:39:58;;;;;;;3.08;1.67;;;10.10;99.90;;;;;;4993528;28;20034;-66
2024/01/03 12:42:23;;;;;;;3.30;1.40;;;10.20;99.90;;;;;;4993428;28;20092;-65
2024/01/03 12:44:50;;;;;;;2.67;1.35;;;10.10;99.90;;;;;;4993391;28;20049;-65
2024/01/03 12:47:15;;;;;;;3.05;1.58;;;10.10;99.90;;;;;;4993422;28;20046;-66
2024/01/03 12:49:41;;;;;;;3.45;1.35;;;10.10;99.90;;;;;;4991867;28;20042;-66
2024/01/03 12:52:10;;;;;;;3.08;1.27;;;10.00;99.90;;;;;;4993277;28;20471;-65
2024/01/03 12:54:37;;;;;;;2.42;1.15;;;10.10;99.90;;;;;;4991723;28;20080;-66
2024/01/03 12:57:08;;;;;;;2.33;1.02;;;10.00;99.90;;;;;;4993314;28;20402;-66
2024/01/03 12:59:37;;;;;;;2.40;1.38;;;10.00;99.90;;;;;;4993106;28;20050;-64
2024/01/03 13:02:03;;;;;;;2.10;1.30;;;9.90;99.90;;;;;;4992492;28;20120;-64